Time;durP1;ratioP1;P1;durP2;ratioP2;P2;SDS_P1;SDS_P2;PMS_P1;PMS_P2;Temp;Humidity;BMP_temperature;BMP_pressure;BME280_temperature;BME280_humidity;BME280_pressure;Samples;Min_cycle;Max_cycle;Signal;HPM_P1;HPM_P2
2021/05/18 00:00:49;;;;;;;5.25;4.75;;;;;;;12.24;77.06;99378.42;128260;1101;22370;-75
2021/05/18 00:03:19;;;;;;;9.18;4.60;;;;;;;12.24;77.00;99374.95;128242;1098;24472;-75
2021/05/18 00:05:57;;;;;;;5.05;4.03;;;;;;;12.24;77.25;99375.77;128249;1098;22386;-77
2021/05/18 00:08:29;;;;;;;5.78;4.25;;;;;;;12.23;77.23;99379.45;128192;1098;24590;-76
2021/05/18 00:13:54;;;;;;;6.45;4.05;;;;;;;12.19;77.26;99375.55;128236;1101;23294;-75
2021/05/18 00:16:24;;;;;;;5.00;4.30;;;;;;;12.21;77.36;99368.23;128260;1101;22653;-76
2021/05/18 00:18:54;;;;;;;5.43;4.75;;;;;;;12.24;77.27;99367.83;128236;1098;24984;-77
2021/05/18 00:21:24;;;;;;;5.28;4.28;;;;;;;12.25;77.22;99374.74;128196;1101;24278;-77
2021/05/18 00:23:54;;;;;;;4.93;4.20;;;;;;;12.25;77.34;99364.15;128209;1098;24479;-77
2021/05/18 00:26:24;;;;;;;5.85;3.93;;;;;;;12.25;77.09;99371.28;128246;1101;22355;-77
2021/05/18 00:28:53;;;;;;;5.13;4.10;;;;;;;12.25;77.37;99369.45;128316;1100;22361;-77
2021/05/18 00:31:24;;;;;;;3.88;3.33;;;;;;;12.26;77.13;99370.26;128196;1101;22361;-77
2021/05/18 00:33:53;;;;;;;3.98;3.25;;;;;;;12.27;77.39;99371.09;128218;1098;24958;-76
2021/05/18 00:36:23;;;;;;;4.17;3.60;;;;;;;12.25;77.11;99372.09;128194;1098;24246;-76
2021/05/18 00:38:52;;;;;;;4.05;3.45;;;;;;;12.24;77.38;99370.47;128207;1098;24506;-77
2021/05/18 00:41:22;;;;;;;5.03;3.85;;;;;;;12.25;77.17;99379.23;128127;1101;22786;-77
2021/05/18 00:43:52;;;;;;;6.45;4.70;;;;;;;12.23;77.32;99382.09;128187;1101;22711;-77
2021/05/18 00:46:23;;;;;;;4.70;3.45;;;;;;;12.23;77.28;99381.28;128213;1098;24475;-77
2021/05/18 00:48:59;;;;;;;;;;;;;;;12.17;77.28;99387.38;128262;1101;22475;-77
2021/05/18 00:51:40;;;;;;;7.27;4.23;;;;;;;12.11;77.60;99378.41;128198;1101;21270;-77
2021/05/18 00:54:20;;;;;;;6.18;4.63;;;;;;;12.12;77.60;99382.67;128234;1101;22346;-76
2021/05/18 00:59:44;;;;;;;7.88;5.75;;;;;;;12.11;77.34;99374.94;128170;1098;24479;-76
2021/05/18 01:02:14;;;;;;;5.63;4.18;;;;;;;12.13;77.78;99379.03;128208;1101;22452;-77
2021/05/18 01:04:44;;;;;;;5.00;4.50;;;;;;;12.12;77.74;99377.38;128220;1101;22361;-77
2021/05/18 01:07:15;;;;;;;6.80;4.75;;;;;;;12.13;77.76;99379.03;128186;1101;22770;-77
2021/05/18 01:09:45;;;;;;;6.20;4.88;;;;;;;12.12;77.77;99381.86;128257;1101;22353;-77
2021/05/18 01:12:15;;;;;;;6.95;4.98;;;;;;;12.12;77.92;99384.50;128242;1098;22343;-76
2021/05/18 01:14:45;;;;;;;5.93;4.68;;;;;;;12.11;77.87;99385.53;128269;1101;22342;-77
2021/05/18 01:17:14;;;;;;;4.70;3.83;;;;;;;12.09;77.75;99383.07;128202;1098;24475;-77
2021/05/18 01:19:45;;;;;;;5.83;4.10;;;;;;;12.08;77.78;99378.80;128231;1098;22355;-77
2021/05/18 01:22:15;;;;;;;7.48;4.80;;;;;;;12.08;77.56;99391.23;128217;1101;22365;-76
2021/05/18 01:24:46;;;;;;;5.43;4.83;;;;;;;12.07;77.93;99384.31;127956;1104;22352;-76
2021/05/18 01:27:16;;;;;;;6.75;4.70;;;;;;;12.07;77.60;99395.70;127913;1104;22382;-76
2021/05/18 01:29:46;;;;;;;5.65;4.98;;;;;;;12.06;77.68;99387.95;127950;1104;22365;-76
2021/05/18 01:32:22;;;;;;;5.13;4.68;;;;;;;12.04;77.61;99393.45;127967;1104;22383;-76
2021/05/18 01:34:52;;;;;;;6.28;4.45;;;;;;;12.04;77.81;99385.52;128026;1104;22368;-76
2021/05/18 01:37:21;;;;;;;5.70;4.55;;;;;;;12.06;77.84;99399.34;127963;1104;22363;-77
2021/05/18 01:42:56;;;;;;;7.98;4.93;;;;;;;12.05;77.97;99388.98;127985;1098;24175;-76
2021/05/18 01:45:29;;;;;;;5.67;4.87;;;;;;;12.06;77.86;99396.70;128023;1102;24511;-77
2021/05/18 01:48:06;;;;;;;6.45;5.05;;;;;;;12.07;78.01;99395.70;128009;1101;22481;-76
2021/05/18 01:50:46;;;;;;;5.00;4.43;;;;;;;12.08;77.31;99396.52;127959;1104;22389;-75
2021/05/18 01:53:19;;;;;;;7.25;5.00;;;;;;;12.08;77.93;99394.69;127971;1101;25093;-76
2021/05/18 01:58:23;;;;;;;5.80;4.53;;;;;;;12.04;77.85;99401.41;127963;1104;22350;-76
2021/05/18 02:01:12;;;;;;;6.68;5.10;;;;;;;12.01;77.71;99399.96;127996;1102;22370;-76
2021/05/18 02:03:42;;;;;;;7.13;5.57;;;;;;;12.01;77.80;99396.50;128039;1101;22349;-76
2021/05/18 02:06:11;;;;;;;7.15;6.38;;;;;;;12.01;77.80;99409.73;128213;1098;24249;-76
2021/05/18 02:08:46;;;;;;;7.00;6.23;;;;;;;12.00;77.93;99410.77;128174;1101;22337;-76
2021/05/18 02:11:23;;;;;;;8.40;6.03;;;;;;;11.99;78.17;99417.86;128184;1101;22369;-75
2021/05/18 02:13:58;;;;;;;7.33;6.17;;;;;;;11.98;77.84;99418.08;128214;1098;24166;-76
2021/05/18 02:16:37;;;;;;;7.45;5.30;;;;;;;11.96;77.83;99423.58;128170;1098;22358;-76
2021/05/18 02:25:12;;;;;;;6.45;4.53;;;;;;;11.86;78.10;99417.86;127556;1105;24097;-76
2021/05/18 02:28:01;;;;;;;4.85;4.38;;;;;;;11.86;78.15;99422.30;127447;1104;22394;-76
2021/05/18 02:30:34;;;;;;;5.75;5.15;;;;;;;11.86;78.16;99417.86;127795;1104;22407;-75
2021/05/18 02:33:04;;;;;;;6.18;5.58;;;;;;;11.87;78.22;99419.48;127438;1104;22524;-76
2021/05/18 02:35:37;;;;;;;6.75;6.08;;;;;;;11.89;78.34;99421.91;127403;1105;22387;-76
2021/05/18 02:38:07;;;;;;;7.05;6.35;;;;;;;11.89;78.33;99416.62;127926;1104;22531;-76
2021/05/18 02:40:40;;;;;;;6.35;5.70;;;;;;;11.88;78.26;99425.58;127989;1098;22338;-77
2021/05/18 02:43:17;;;;;;;3.93;3.60;;;;;;;11.88;78.57;99420.29;128132;1098;22339;-77
2021/05/18 02:51:10;;;;;;;8.68;4.55;;;;;;;11.80;78.12;99433.67;127632;1101;24986;-76
2021/05/18 02:53:54;;;;;;;6.58;4.40;;;;;;;11.78;78.17;99429.38;127888;1104;23405;-77
2021/05/18 02:56:54;;;;;;;5.05;4.30;;;;;;;11.79;78.37;99424.90;127890;1101;24189;-76
2021/05/18 02:59:19;;;;;;;5.93;4.13;;;;;;;11.79;78.30;99424.90;127911;1104;22402;-76
2021/05/18 03:02:00;;;;;;;4.93;4.28;;;;;;;11.78;78.60;99431.22;127933;1104;22389;-75
2021/05/18 03:04:32;;;;;;;5.93;4.68;;;;;;;11.78;78.32;99437.31;128002;1105;22736;-77
2021/05/18 03:07:03;;;;;;;6.33;4.73;;;;;;;11.78;78.20;99441.80;127913;1104;22375;-77
2021/05/18 03:09:33;;;;;;;6.43;4.63;;;;;;;11.78;78.41;99439.16;128093;1098;22370;-76
2021/05/18 03:12:03;;;;;;;6.45;5.18;;;;;;;11.78;78.29;99447.09;128237;1101;22441;-77
2021/05/18 03:14:33;;;;;;;5.20;4.45;;;;;;;11.77;78.32;99445.47;128203;1098;24505;-76
2021/05/18 03:17:03;;;;;;;6.33;4.80;;;;;;;11.76;78.40;99451.75;128156;1098;24508;-76
2021/05/18 03:19:33;;;;;;;5.50;4.80;;;;;;;11.75;78.31;99455.42;128182;1098;25034;-76
2021/05/18 03:22:03;;;;;;;10.23;5.18;;;;;;;11.75;78.41;99450.94;128207;1098;24488;-75
2021/05/18 03:24:33;;;;;;;6.48;5.70;;;;;;;11.75;78.54;99453.59;128179;1101;22347;-76
2021/05/18 03:27:03;;;;;;;6.43;5.83;;;;;;;11.75;78.66;99456.23;128218;1101;22368;-76
2021/05/18 03:29:33;;;;;;;9.58;7.30;;;;;;;11.78;78.52;99450.55;128176;1101;22356;-76
2021/05/18 03:34:53;;;;;;;8.75;7.08;;;;;;;11.80;78.67;99452.20;128225;1098;24263;-76
2021/05/18 03:37:27;;;;;;;10.13;7.53;;;;;;;11.83;78.58;99451.77;128137;1101;22355;-76
2021/05/18 03:40:04;;;;;;;8.53;7.25;;;;;;;11.85;78.68;99453.25;128175;1101;22357;-76
2021/05/18 03:42:37;;;;;;;7.90;6.45;;;;;;;11.88;78.46;99449.40;128181;1101;22370;-75
2021/05/18 03:45:14;;;;;;;7.93;6.68;;;;;;;11.89;78.51;99451.83;128152;1101;22355;-76
2021/05/18 04:02:40;;;;;;;6.58;5.78;;;;;;;12.08;78.69;99439.69;128226;1101;22361;-77
2021/05/18 04:04:55;;;;;;;6.58;5.23;;;;;;;12.14;78.55;99440.73;128168;1098;24487;-76
2021/05/18 04:13:06;;;;;;;8.10;4.93;;;;;;;12.23;77.98;99455.42;128196;1101;22350;-77
2021/05/18 04:18:27;;;;;;;5.88;4.60;;;;;;;12.28;77.83;99452.97;128205;1101;22374;-76
2021/05/18 04:26:38;;;;;;;5.48;4.78;;;;;;;12.36;77.61;99451.96;128211;1098;22337;-77
2021/05/18 04:51:39;;;;;;;7.20;5.33;;;;;;;12.66;77.50;99474.44;127434;1104;25125;-77
2021/05/18 05:16:06;;;;;;;13.43;12.05;;;;;;;12.81;76.33;99484.02;128210;1101;22356;-76
2021/05/18 05:18:36;;;;;;;11.33;10.20;;;;;;;12.82;76.32;99490.94;128244;1098;24485;-76
2021/05/18 05:21:06;;;;;;;9.75;8.73;;;;;;;12.80;76.07;99498.30;128243;1101;22490;-76
2021/05/18 05:23:36;;;;;;;12.03;8.58;;;;;;;12.78;75.92;99492.38;128181;1101;22359;-77
2021/05/18 05:26:06;;;;;;;9.53;8.45;;;;;;;12.77;76.09;99501.36;128025;1101;22379;-77
2021/05/18 05:28:35;;;;;;;11.08;8.80;;;;;;;12.79;76.01;99494.00;128231;1101;22365;-76
2021/05/18 05:31:08;;;;;;;8.83;8.03;;;;;;;12.79;75.97;99494.00;128007;1102;22364;-77
2021/05/18 05:33:37;;;;;;;10.68;9.25;;;;;;;12.79;75.97;99492.16;128213;1101;22455;-77
2021/05/18 05:36:07;;;;;;;16.55;14.85;;;;;;;12.84;76.05;99499.52;127949;1105;22367;-77
2021/05/18 05:38:38;;;;;;;9.98;8.93;;;;;;;12.88;76.02;99498.90;127900;1104;22675;-76
2021/05/18 05:41:08;;;;;;;10.70;9.70;;;;;;;12.90;75.83;99498.71;127869;1104;22349;-77
2021/05/18 05:43:37;;;;;;;10.25;8.38;;;;;;;12.92;75.72;99505.42;127909;1104;22365;-76
2021/05/18 05:46:08;;;;;;;9.98;7.45;;;;;;;12.93;75.66;99503.61;127939;1101;22357;-79
2021/05/18 05:48:37;;;;;;;8.08;6.95;;;;;;;12.97;75.45;99510.13;127996;1104;22347;-78
2021/05/18 05:51:07;;;;;;;15.05;10.65;;;;;;;12.99;75.15;99494.81;127993;1103;22367;-78
2021/05/18 05:53:37;;;;;;;7.90;5.88;;;;;;;13.00;75.20;99499.12;128003;1101;22382;-78
2021/05/18 05:56:06;;;;;;;6.37;5.50;;;;;;;13.02;74.99;99505.02;128251;1101;22370;-79
2021/05/18 05:58:36;;;;;;;9.87;5.40;;;;;;;13.05;74.74;99498.49;128077;1098;22344;-78
2021/05/18 06:01:05;;;;;;;16.73;5.90;;;;;;;13.07;74.65;99499.12;128180;1098;24485;-78
2021/05/18 06:03:35;;;;;;;6.33;5.43;;;;;;;13.07;74.68;99504.42;128134;1098;22459;-77
2021/05/18 06:06:06;;;;;;;6.90;5.10;;;;;;;13.07;74.26;99504.42;128208;1101;22365;-78
2021/05/18 06:08:42;;;;;;;5.28;4.78;;;;;;;13.08;74.21;99501.55;128339;1098;22338;-78
2021/05/18 06:49:22;;;;;;;6.03;4.40;;;;;;;13.57;73.08;99547.25;127723;1106;22383;-79
2021/05/18 06:51:52;;;;;;;6.68;5.28;;;;;;;13.63;72.76;99563.16;127982;1104;22411;-79
2021/05/18 06:54:22;;;;;;;10.63;5.05;;;;;;;13.65;72.54;99566.41;127985;1105;22343;-78
2021/05/18 06:56:54;;;;;;;6.55;4.10;;;;;;;13.67;72.34;99560.09;128141;1101;23160;-79
2021/05/18 07:01:57;;;;;;;6.93;5.20;;;;;;;13.71;72.49;99564.77;127980;1105;22503;-79
2021/05/18 07:04:28;;;;;;;6.95;4.40;;;;;;;13.75;72.47;99575.79;127990;1101;24478;-81
2021/05/18 07:07:14;;;;;;;5.47;4.13;;;;;;;13.79;72.24;99571.69;127967;1103;22346;-78
2021/05/18 07:09:44;;;;;;;4.53;3.63;;;;;;;13.82;71.76;99582.70;128035;1101;22364;-79
2021/05/18 07:12:14;;;;;;;5.00;3.65;;;;;;;13.85;72.08;99582.30;128006;1100;24980;-81
2021/05/18 07:14:43;;;;;;;7.00;3.30;;;;;;;13.86;71.37;99586.60;127978;1101;24509;-80
2021/05/18 07:17:13;;;;;;;7.30;3.27;;;;;;;13.84;71.38;99588.64;128019;1101;22361;-78
2021/05/18 07:19:45;;;;;;;4.05;3.18;;;;;;;13.81;71.44;99596.20;128050;1098;24455;-79
2021/05/18 07:22:15;;;;;;;6.25;3.05;;;;;;;13.79;71.46;99588.43;128186;1101;22355;-76
2021/05/18 07:24:44;;;;;;;4.38;3.48;;;;;;;13.77;71.44;99592.34;128244;1098;24153;-75
2021/05/18 07:27:14;;;;;;;6.45;3.65;;;;;;;13.78;71.55;99601.92;128225;1101;22336;-76
2021/05/18 07:29:44;;;;;;;4.68;3.45;;;;;;;13.77;71.65;99595.80;128347;1098;24469;-76
2021/05/18 07:32:14;;;;;;;5.93;4.15;;;;;;;13.80;71.55;99605.20;128159;1098;22425;-76
2021/05/18 07:34:47;;;;;;;5.23;4.08;;;;;;;13.81;71.55;99601.52;128214;1100;22485;-76
2021/05/18 07:37:16;;;;;;;12.08;4.00;;;;;;;13.83;71.27;99610.91;128217;1101;22364;-75
2021/05/18 07:39:46;;;;;;;4.90;3.73;;;;;;;13.84;71.51;99606.41;128184;1101;22474;-76
2021/05/18 07:42:16;;;;;;;6.18;3.48;;;;;;;13.83;71.32;99604.79;128212;1098;24987;-76
2021/05/18 07:44:47;;;;;;;7.00;3.68;;;;;;;13.84;71.41;99607.22;128219;1098;22367;-76
2021/05/18 07:47:17;;;;;;;6.53;3.40;;;;;;;13.85;71.31;99606.19;128005;1101;22412;-76
2021/05/18 07:49:49;;;;;;;6.25;4.03;;;;;;;13.87;71.16;99608.66;128230;1098;22339;-76
2021/05/18 08:06:21;;;;;;;5.30;3.43;;;;;;;13.97;71.37;99617.00;128175;1101;23304;-73
2021/05/18 08:08:51;;;;;;;8.18;4.60;;;;;;;13.99;71.45;99625.56;128167;1098;22362;-74
2021/05/18 08:11:21;;;;;;;8.23;3.45;;;;;;;13.99;71.04;99625.56;128199;1101;22809;-75
2021/05/18 08:13:57;;;;;;;6.75;3.55;;;;;;;13.95;71.13;99623.54;128180;1102;22352;-75
2021/05/18 10:21:53;;;;;;;5.68;3.35;;;;;;;16.08;64.83;99653.20;127977;1104;22366;-76
2021/05/18 10:36:05;;;;;;;6.00;3.28;;;;;;;16.44;64.13;99671.06;128106;1100;22375;-75
2021/05/18 10:38:46;;;;;;;3.95;3.48;;;;;;;16.49;63.94;99662.38;128222;1101;22348;-75
2021/05/18 10:41:18;;;;;;;4.75;3.85;;;;;;;16.57;63.89;99666.63;128209;1101;22446;-75
2021/05/18 10:44:01;;;;;;;5.75;3.08;;;;;;;16.67;63.13;99669.58;128273;1098;22347;-74
2021/05/18 10:46:45;;;;;;;10.20;3.40;;;;;;;16.68;62.76;99673.86;128325;1101;22339;-74
2021/05/18 10:49:32;;;;;;;5.10;3.10;;;;;;;16.73;62.47;99675.84;127995;1104;22350;-76
2021/05/18 10:52:08;;;;;;;6.73;3.03;;;;;;;16.68;62.07;99666.66;127950;1101;24518;-74
2021/05/18 10:54:43;;;;;;;5.48;3.25;;;;;;;16.69;62.03;99665.65;128070;1101;22387;-75
2021/05/18 10:57:19;;;;;;;5.73;3.35;;;;;;;16.73;62.44;99674.02;128039;1104;22392;-75
2021/05/18 10:59:53;;;;;;;4.83;2.78;;;;;;;16.85;62.68;99666.08;128046;1104;22381;-75
2021/05/18 11:02:34;;;;;;;5.33;3.18;;;;;;;16.91;61.87;99659.84;127514;1107;22399;-76
2021/05/18 11:05:13;;;;;;;7.80;3.93;;;;;;;16.92;61.66;99670.28;127556;1107;22366;-76
2021/05/18 11:07:46;;;;;;;7.98;6.55;;;;;;;16.89;61.82;99667.25;127721;1105;22362;-75
2021/05/18 11:10:20;;;;;;;4.23;3.80;;;;;;;16.87;61.07;99666.69;127577;1107;22376;-75
2021/05/18 11:12:52;;;;;;;3.90;3.38;;;;;;;16.85;60.79;99661.55;127593;1107;22491;-75
2021/05/18 11:15:26;;;;;;;3.83;3.05;;;;;;;16.81;60.64;99667.58;127533;1107;22396;-75
2021/05/18 11:17:56;;;;;;;4.58;3.30;;;;;;;16.81;61.00;99671.05;127561;1107;22397;-75
2021/05/18 11:26:03;;;;;;;4.53;3.75;;;;;;;16.93;60.36;99673.79;127940;1104;22346;-76
2021/05/18 11:28:37;;;;;;;4.08;3.35;;;;;;;16.93;60.31;99669.27;128091;1101;22357;-77
2021/05/18 11:31:24;;;;;;;7.58;3.60;;;;;;;16.96;60.15;99672.50;128071;1101;22340;-75
2021/05/18 11:34:03;;;;;;;6.30;3.90;;;;;;;16.93;59.99;99674.59;128097;1101;22339;-75
2021/05/18 11:36:40;;;;;;;7.70;4.33;;;;;;;16.88;60.28;99674.45;128458;1101;22354;-75
2021/05/18 11:39:16;;;;;;;5.48;4.10;;;;;;;16.89;60.29;99668.09;128198;1101;22339;-76
2021/05/18 11:41:46;;;;;;;6.13;3.80;;;;;;;16.91;60.13;99665.99;128064;1098;22337;-75
2021/05/18 11:44:15;;;;;;;4.35;3.60;;;;;;;16.98;60.09;99675.77;128206;1101;22364;-74
2021/05/18 11:46:58;;;;;;;5.57;3.83;;;;;;;17.05;60.32;99666.63;127967;1101;22336;-75
2021/05/18 11:49:27;;;;;;;7.60;4.20;;;;;;;17.15;60.23;99663.41;128059;1101;22354;-74
2021/05/18 11:51:59;;;;;;;4.63;3.93;;;;;;;17.26;60.01;99667.14;128213;1098;24475;-74
2021/05/18 11:54:37;;;;;;;5.50;3.80;;;;;;;17.36;60.14;99673.58;128150;1098;24393;-75
2021/05/18 11:57:08;;;;;;;6.40;4.38;;;;;;;17.52;59.99;99673.94;128271;1098;24469;-75
2021/05/18 11:59:38;;;;;;;4.45;3.75;;;;;;;17.61;59.31;99678.72;128223;1101;23129;-76
2021/05/18 12:02:08;;;;;;;4.50;3.60;;;;;;;17.64;58.85;99667.58;128218;1098;22355;-76
2021/05/18 12:04:40;;;;;;;7.50;4.68;;;;;;;17.64;58.56;99667.58;128269;1101;22357;-76
2021/05/18 12:07:13;;;;;;;4.03;3.50;;;;;;;17.58;57.59;99667.69;128239;1098;22351;-74
2021/05/18 12:09:47;;;;;;;5.50;3.28;;;;;;;17.63;57.59;99673.17;128303;1101;22367;-75
2021/05/18 12:12:19;;;;;;;4.68;3.60;;;;;;;17.70;57.80;99673.06;128319;1101;22790;-76
2021/05/18 12:14:56;;;;;;;5.03;4.40;;;;;;;17.75;57.20;99665.15;128237;1101;22364;-76
2021/05/18 12:17:31;;;;;;;7.25;4.90;;;;;;;17.76;57.29;99667.64;128220;1098;24463;-74
2021/05/18 12:20:04;;;;;;;8.43;4.83;;;;;;;17.82;57.32;99665.88;128080;1101;22987;-75
2021/05/18 12:22:49;;;;;;;5.35;4.13;;;;;;;17.92;56.81;99666.11;128234;1101;22364;-75
2021/05/18 12:25:35;;;;;;;5.68;3.60;;;;;;;17.96;56.83;99666.45;128254;1101;23121;-73
2021/05/18 12:28:09;;;;;;;3.60;3.30;;;;;;;17.97;56.58;99666.23;128276;1101;23400;-72
2021/05/18 12:30:43;;;;;;;6.00;4.58;;;;;;;18.03;56.20;99661.83;128280;1101;22364;-72
2021/05/18 12:33:13;;;;;;;4.75;3.88;;;;;;;18.06;56.27;99666.69;128383;1098;24587;-73
2021/05/18 12:35:43;;;;;;;4.40;4.00;;;;;;;18.08;56.45;99660.06;128198;1098;22349;-73
2021/05/18 12:38:15;;;;;;;5.80;4.00;;;;;;;18.09;56.54;99655.53;127916;1105;22377;-73
2021/05/18 12:40:45;;;;;;;4.78;3.60;;;;;;;18.09;56.35;99661.71;127894;1104;22854;-73
2021/05/18 12:43:21;;;;;;;5.35;3.20;;;;;;;18.13;56.51;99664.73;127935;1103;23415;-74
2021/05/18 12:46:12;;;;;;;9.73;4.68;;;;;;;18.22;56.57;99654.47;128023;1104;22393;-74
2021/05/18 12:48:47;;;;;;;5.58;4.08;;;;;;;18.25;56.45;99657.48;128008;1101;22420;-73
2021/05/18 12:51:24;;;;;;;6.58;4.00;;;;;;;18.28;56.41;99665.05;127916;1101;24510;-73
2021/05/18 12:54:12;;;;;;;5.28;4.65;;;;;;;18.37;56.73;99659.34;128024;1103;22362;-73
2021/05/18 12:56:42;;;;;;;6.08;4.73;;;;;;;18.43;55.97;99663.76;128055;1101;22336;-73
2021/05/18 12:59:12;;;;;;;6.38;4.10;;;;;;;18.45;56.11;99656.30;128244;1098;22334;-73
2021/05/18 13:01:47;;;;;;;5.83;4.40;;;;;;;18.52;56.13;99663.13;128200;1101;22337;-73
2021/05/18 13:04:19;;;;;;;7.58;3.88;;;;;;;18.55;55.60;99665.33;128011;1101;22334;-74
2021/05/18 13:06:49;;;;;;;;;;;;;;;18.47;55.14;99660.36;128279;1101;22351;-72
2021/05/18 13:09:29;;;;;;;4.03;3.65;;;;;;;18.45;55.61;99653.62;128225;1101;21686;-74
2021/05/18 13:12:12;;;;;;;4.65;3.75;;;;;;;18.47;55.40;99662.23;128215;1101;22347;-75
2021/05/18 13:15:11;;;;;;;5.03;3.68;;;;;;;18.43;54.96;99661.89;128327;1098;22305;-76
2021/05/18 13:18:00;;;;;;;6.43;3.65;;;;;;;18.37;54.72;99660.16;128263;1101;22336;-76
2021/05/18 13:20:54;;;;;;;6.03;4.45;;;;;;;18.35;54.88;99663.05;128230;1101;22334;-75
2021/05/18 13:23:30;;;;;;;4.80;3.85;;;;;;;18.30;55.03;99664.82;128238;1101;22364;-75
2021/05/18 13:28:55;;;;;;;4.53;2.73;;;;;;;18.04;54.43;99700.87;128202;1101;22336;-77
2021/05/18 13:31:28;;;;;;;4.18;2.40;;;;;;;17.72;54.62;99701.14;127892;1101;22878;-77
2021/05/18 13:33:59;;;;;;;3.48;1.78;;;;;;;17.34;55.48;99705.02;127952;1104;22418;-75
2021/05/18 13:36:45;;;;;;;2.95;1.90;;;;;;;16.97;55.95;99716.84;127913;1101;24572;-75
2021/05/18 13:39:19;;;;;;;4.35;1.68;;;;;;;16.60;56.67;99725.65;127989;1101;25252;-76
2021/05/18 13:41:50;;;;;;;3.58;1.80;;;;;;;16.21;57.51;99716.21;127990;1105;22365;-76
2021/05/18 13:44:20;;;;;;;3.50;1.70;;;;;;;15.90;58.51;99720.59;127958;1105;22474;-75
2021/05/18 13:46:52;;;;;;;4.63;1.90;;;;;;;15.72;59.38;99731.98;127869;1104;22481;-77
2021/05/18 13:49:21;;;;;;;4.50;2.00;;;;;;;15.52;60.08;99736.60;127981;1101;22407;-77
2021/05/18 13:51:51;;;;;;;4.78;2.60;;;;;;;15.33;61.03;99733.05;128229;1098;22350;-77
2021/05/18 13:54:38;;;;;;;4.90;2.80;;;;;;;15.11;61.79;99729.89;128179;1101;22367;-77
2021/05/18 13:57:08;;;;;;;;;;;;;;;14.89;61.72;99732.02;128205;1098;25009;-75
2021/05/18 13:59:38;;;;;;;13.78;2.90;;;;;;;14.76;62.45;99742.70;128231;1101;21263;-77
2021/05/18 14:02:09;;;;;;;3.98;1.88;;;;;;;14.66;63.01;99737.86;128184;1098;24325;-77
2021/05/18 14:04:39;;;;;;;3.70;1.78;;;;;;;14.55;63.46;99739.30;128267;1098;24258;-78
2021/05/18 14:10:46;;;;;;;2.63;1.45;;;;;;;14.25;64.27;99746.07;127465;1105;24507;-76
2021/05/18 14:13:16;;;;;;;4.57;1.63;;;;;;;14.15;64.41;99738.52;127543;1107;22399;-76
2021/05/18 14:15:46;;;;;;;4.73;0.93;;;;;;;14.05;64.64;99746.90;127496;1107;22390;-77
2021/05/18 14:18:16;;;;;;;5.63;1.23;;;;;;;14.00;65.15;99745.91;127495;1105;23890;-75
2021/05/18 14:20:47;;;;;;;2.85;0.98;;;;;;;13.96;65.38;99726.91;127534;1107;22389;-76
2021/05/18 14:23:28;;;;;;;3.43;2.33;;;;;;;13.94;65.84;99730.78;127564;1107;22387;-76
2021/05/18 14:25:58;;;;;;;3.63;1.93;;;;;;;13.90;65.92;99733.03;127618;1106;22484;-76
2021/05/18 14:28:37;;;;;;;9.70;3.00;;;;;;;13.87;66.21;99742.22;127523;1107;23342;-76
2021/05/18 14:31:11;;;;;;;9.18;3.20;;;;;;;13.83;66.75;99738.34;127537;1105;22393;-76
2021/05/18 14:33:42;;;;;;;6.50;3.53;;;;;;;13.82;67.07;99733.22;127489;1103;22446;-76
2021/05/18 14:36:15;;;;;;;6.83;3.85;;;;;;;13.80;67.25;99735.28;127456;1107;22374;-75
2021/05/18 14:39:05;;;;;;;9.18;4.15;;;;;;;13.79;67.62;99742.40;127503;1107;22483;-75
2021/05/18 14:44:25;;;;;;;2.95;2.48;;;;;;;13.82;67.99;99757.11;127510;1107;22378;-75
2021/05/18 14:48:10;;;;;;;6.55;2.58;;;;;;;13.82;67.91;99749.15;127491;1108;22391;-75
2021/05/18 14:55:32;;;;;;;6.63;4.95;;;;;;;13.83;69.12;99741.00;127962;1100;22414;-76
2021/05/18 14:58:02;;;;;;;6.68;4.40;;;;;;;13.88;69.26;99741.19;127936;1105;22346;-77
2021/05/18 15:00:32;;;;;;;8.30;4.10;;;;;;;13.93;69.43;99737.94;128011;1101;22375;-75
2021/05/18 15:03:03;;;;;;;9.15;7.20;;;;;;;14.01;69.95;99748.34;128004;1103;22387;-76
2021/05/18 15:05:33;;;;;;;9.45;7.35;;;;;;;14.09;69.69;99750.80;128101;1098;24915;-76
2021/05/18 15:08:04;;;;;;;11.00;9.08;;;;;;;14.18;69.78;99746.08;128240;1101;22376;-76
2021/05/18 15:10:34;;;;;;;20.15;9.43;;;;;;;14.29;70.10;99747.28;128259;1101;22345;-77
2021/05/18 15:13:04;;;;;;;12.38;8.95;;;;;;;14.39;70.08;99750.33;128286;1101;22348;-78
2021/05/18 15:15:35;;;;;;;10.28;9.13;;;;;;;14.46;70.00;99756.48;128278;1098;22349;-75
2021/05/18 15:18:05;;;;;;;14.78;8.30;;;;;;;14.55;69.93;99743.80;128272;1101;22349;-76
2021/05/18 15:20:34;;;;;;;11.35;7.95;;;;;;;14.66;69.89;99744.98;128250;1098;24979;-76
2021/05/18 15:23:04;;;;;;;7.88;5.23;;;;;;;14.74;69.82;99750.91;127953;1104;22368;-76
2021/05/18 15:25:34;;;;;;;5.30;3.75;;;;;;;14.77;69.43;99753.15;128032;1101;24167;-76
2021/05/18 15:28:05;;;;;;;5.80;3.98;;;;;;;14.85;69.21;99745.95;128012;1101;22345;-76
2021/05/18 15:30:35;;;;;;;4.95;3.68;;;;;;;14.87;68.89;99747.39;127942;1104;23113;-76
2021/05/18 15:33:05;;;;;;;7.68;4.18;;;;;;;14.93;68.85;99754.53;127958;1101;22418;-76
2021/05/18 15:35:34;;;;;;;5.75;5.13;;;;;;;14.98;68.68;99748.56;127969;1104;22348;-76
2021/05/18 15:38:04;;;;;;;5.95;4.80;;;;;;;15.01;68.32;99748.15;127985;1100;24173;-76
2021/05/18 15:40:34;;;;;;;6.15;5.38;;;;;;;15.03;68.35;99749.58;127964;1102;22349;-76
2021/05/18 15:43:04;;;;;;;6.68;4.23;;;;;;;15.13;68.73;99749.13;128245;1101;22325;-75
2021/05/18 15:45:34;;;;;;;6.35;4.00;;;;;;;15.19;68.46;99736.80;128288;1101;22346;-75
2021/05/18 15:48:06;;;;;;;6.15;3.98;;;;;;;15.27;68.50;99745.36;128256;1098;24177;-75
2021/05/18 15:50:36;;;;;;;5.67;3.87;;;;;;;15.31;68.01;99743.09;128200;1098;22349;-76
2021/05/18 15:53:06;;;;;;;5.25;3.83;;;;;;;15.32;67.72;99741.23;128273;1101;22369;-75
2021/05/18 15:55:36;;;;;;;4.63;3.35;;;;;;;15.32;67.31;99744.70;128219;1100;23130;-76
2021/05/18 15:58:06;;;;;;;6.90;3.80;;;;;;;15.30;66.90;99744.94;128216;1101;22485;-76
2021/05/18 16:00:35;;;;;;;5.25;3.30;;;;;;;15.30;66.89;99749.45;128247;1101;22344;-76
2021/05/18 16:03:08;;;;;;;8.40;3.65;;;;;;;15.29;66.59;99745.98;128220;1098;22349;-75
2021/05/18 16:05:38;;;;;;;4.88;3.60;;;;;;;15.23;65.70;99752.14;127919;1101;24319;-76
2021/05/18 16:08:58;;;;;;;7.00;4.50;;;;;;;15.21;65.93;99761.36;127936;1104;22355;-77
2021/05/18 16:11:05;;;;;;;6.73;4.07;;;;;;;15.16;66.17;99762.00;127926;1104;22341;-76
2021/05/18 16:13:37;;;;;;;4.48;3.15;;;;;;;15.14;65.91;99766.71;128021;1104;22438;-76
2021/05/18 16:16:16;;;;;;;5.18;3.40;;;;;;;15.10;65.33;99768.17;127949;1104;22348;-75
2021/05/18 16:18:46;;;;;;;6.00;3.90;;;;;;;15.00;65.21;99768.62;127943;1100;24958;-76
2021/05/18 16:21:18;;;;;;;7.85;4.80;;;;;;;14.93;65.10;99767.83;127507;1107;22367;-75
2021/05/18 16:23:53;;;;;;;5.93;4.68;;;;;;;14.89;64.96;99773.76;127692;1104;22359;-76
2021/05/18 16:26:26;;;;;;;7.80;5.55;;;;;;;14.84;65.07;99771.74;128005;1101;22347;-75
2021/05/18 16:28:58;;;;;;;9.48;5.58;;;;;;;14.77;64.59;99777.08;127546;1105;22414;-76
2021/05/18 16:31:30;;;;;;;7.85;5.60;;;;;;;14.73;65.15;99780.38;127487;1105;22369;-76
2021/05/18 16:34:00;;;;;;;12.00;6.60;;;;;;;14.70;65.13;99788.77;127579;1105;23220;-77
2021/05/18 16:36:31;;;;;;;6.80;5.33;;;;;;;14.69;65.28;99797.74;127546;1104;23216;-76
2021/05/18 16:39:02;;;;;;;6.27;5.00;;;;;;;14.67;65.36;99789.98;127671;1101;22374;-75
2021/05/18 16:41:42;;;;;;;6.63;5.10;;;;;;;14.64;65.38;99793.06;128044;1101;24497;-75
2021/05/18 16:44:12;;;;;;;9.10;5.65;;;;;;;14.59;65.64;99791.03;127952;1101;22340;-76
2021/05/18 16:46:41;;;;;;;9.15;6.68;;;;;;;14.60;65.89;99802.48;128043;1098;24448;-75
2021/05/18 16:49:13;;;;;;;8.55;5.45;;;;;;;14.63;66.33;99802.07;128267;1098;22352;-75
2021/05/18 16:51:47;;;;;;;7.10;4.80;;;;;;;14.66;66.44;99798.16;128088;1101;22341;-75
2021/05/18 16:54:18;;;;;;;7.80;5.40;;;;;;;14.68;66.46;99798.78;128304;1098;24218;-75
2021/05/18 16:56:50;;;;;;;6.33;4.80;;;;;;;14.68;66.28;99804.91;128045;1102;22366;-76
2021/05/18 16:59:20;;;;;;;6.75;4.53;;;;;;;14.72;66.62;99802.64;128254;1101;22362;-75
2021/05/18 17:01:50;;;;;;;6.00;4.58;;;;;;;14.75;66.68;99802.23;128240;1098;24591;-75